createdAt,value
2018-05-29T00:02:06.345Z,2.15
2018-05-29T00:04:33.858Z,2.72
2018-05-29T00:07:01.415Z,2.90
2018-05-29T00:09:29.018Z,2.60
2018-05-29T00:11:56.543Z,1.87
2018-05-29T00:14:24.050Z,2.73
2018-05-29T00:16:51.550Z,3.23
2018-05-29T00:19:19.113Z,2.00
2018-05-29T00:21:46.586Z,2.80
2018-05-29T00:24:14.070Z,2.53
2018-05-29T00:26:41.586Z,2.47
2018-05-29T00:29:09.178Z,2.62
2018-05-29T00:31:36.706Z,3.13
2018-05-29T00:34:04.166Z,3.10
2018-05-29T00:36:31.650Z,2.57
2018-05-29T00:38:59.123Z,3.03
2018-05-29T00:41:26.669Z,2.77
2018-05-29T00:43:54.210Z,2.40
2018-05-29T00:46:21.696Z,2.57
2018-05-29T00:48:49.150Z,2.92
2018-05-29T00:51:16.675Z,2.45
2018-05-29T00:53:44.142Z,3.10
2018-05-29T00:56:11.690Z,3.30
2018-05-29T00:58:39.171Z,3.33
2018-05-29T01:01:06.664Z,2.77
2018-05-29T01:03:34.142Z,2.75
2018-05-29T01:06:01.729Z,3.20
2018-05-29T01:08:29.198Z,3.33
2018-05-29T01:10:56.688Z,2.80
2018-05-29T01:13:24.214Z,3.53
2018-05-29T01:15:51.698Z,2.67
2018-05-29T01:18:19.218Z,2.33
2018-05-29T01:20:46.711Z,3.03
2018-05-29T01:23:14.181Z,2.78
2018-05-29T01:25:41.698Z,3.50
2018-05-29T01:28:09.160Z,3.50
2018-05-29T01:30:36.734Z,3.20
2018-05-29T01:33:04.315Z,3.00
2018-05-29T01:35:31.805Z,3.53
2018-05-29T01:37:59.305Z,3.47
2018-05-29T01:40:26.795Z,2.87
2018-05-29T01:42:54.310Z,3.08
2018-05-29T01:45:21.794Z,2.80
2018-05-29T01:47:49.258Z,2.78
2018-05-29T01:50:16.747Z,2.67
2018-05-29T01:52:44.226Z,3.33
2018-05-29T01:55:11.798Z,3.03
2018-05-29T01:57:39.278Z,2.87
2018-05-29T02:00:06.857Z,3.03
2018-05-29T02:02:34.346Z,2.60
2018-05-29T02:05:01.834Z,2.67
2018-05-29T02:07:29.402Z,3.60
2018-05-29T02:09:56.860Z,3.00
2018-05-29T02:12:24.411Z,3.73
2018-05-29T02:14:51.894Z,3.70
2018-05-29T02:17:19.474Z,3.37
2018-05-29T02:19:46.938Z,3.97
2018-05-29T02:22:14.446Z,4.07
2018-05-29T02:24:42.007Z,3.53
2018-05-29T02:27:09.574Z,3.83
2018-05-29T02:29:37.033Z,3.30
2018-05-29T02:32:04.527Z,3.40
2018-05-29T02:34:32.062Z,3.05
2018-05-29T02:36:59.563Z,3.13
2018-05-29T02:39:27.062Z,3.25
2018-05-29T02:41:54.547Z,2.50
2018-05-29T02:44:22.180Z,3.60
2018-05-29T02:46:49.670Z,3.10
2018-05-29T02:49:17.239Z,3.60
2018-05-29T02:51:44.760Z,2.67
2018-05-29T02:54:12.320Z,3.57
2018-05-29T02:56:39.814Z,3.70
2018-05-29T02:59:07.283Z,3.73
2018-05-29T03:01:34.890Z,3.60
2018-05-29T03:04:02.355Z,3.87
2018-05-29T03:06:29.864Z,3.60
2018-05-29T03:08:57.375Z,3.60
2018-05-29T03:11:24.864Z,3.97
2018-05-29T03:13:52.332Z,3.57
2018-05-29T03:16:19.853Z,4.15
2018-05-29T03:18:47.319Z,3.53
2018-05-29T03:21:14.806Z,3.62
2018-05-29T03:23:42.427Z,3.50
2018-05-29T03:26:09.983Z,3.83
2018-05-29T03:28:37.446Z,4.03
2018-05-29T03:31:04.932Z,2.83
2018-05-29T03:33:32.411Z,4.23
2018-05-29T03:35:59.947Z,3.10
2018-05-29T03:38:27.438Z,4.90
2018-05-29T03:40:54.903Z,3.80
2018-05-29T03:43:22.389Z,2.80
2018-05-29T03:45:49.947Z,3.20
2018-05-29T03:48:17.509Z,3.13
2018-05-29T03:50:44.975Z,3.10
2018-05-29T03:53:12.462Z,3.13
2018-05-29T03:55:39.931Z,3.93
2018-05-29T03:58:07.483Z,3.50
2018-05-29T04:00:34.962Z,3.53
2018-05-29T04:03:02.463Z,3.43
2018-05-29T04:05:29.946Z,3.80
2018-05-29T04:07:57.520Z,3.20
2018-05-29T04:10:25.027Z,3.10
2018-05-29T04:12:52.515Z,3.23
2018-05-29T04:15:20.060Z,2.77
2018-05-29T04:17:47.556Z,2.90
2018-05-29T04:20:15.093Z,3.33
2018-05-29T04:22:42.584Z,3.30
2018-05-29T04:25:10.087Z,3.43
2018-05-29T04:27:37.570Z,4.03
2018-05-29T04:30:05.031Z,4.07
2018-05-29T04:32:32.527Z,3.77
2018-05-29T04:34:59.987Z,3.50
2018-05-29T04:37:27.492Z,3.13
2018-05-29T04:39:54.966Z,4.13
2018-05-29T04:42:22.458Z,3.60
2018-05-29T04:44:49.930Z,4.10
2018-05-29T04:47:17.415Z,4.37
2018-05-29T04:49:44.988Z,5.03
2018-05-29T04:52:12.485Z,4.30
2018-05-29T04:54:39.963Z,4.80
2018-05-29T04:57:07.455Z,4.70
2018-05-29T04:59:34.923Z,4.67
2018-05-29T05:02:02.479Z,3.60
2018-05-29T05:04:29.942Z,4.10
2018-05-29T05:06:57.433Z,3.97
2018-05-29T05:09:24.903Z,3.57
2018-05-29T05:11:52.367Z,3.53
2018-05-29T05:14:19.898Z,3.83
2018-05-29T05:16:47.368Z,3.87
2018-05-29T05:19:14.866Z,4.07
2018-05-29T05:21:42.326Z,3.70
2018-05-29T05:24:09.886Z,4.10
2018-05-29T05:26:37.455Z,4.07
2018-05-29T05:29:04.938Z,3.97
2018-05-29T05:31:32.403Z,3.67
2018-05-29T05:33:59.902Z,3.80
2018-05-29T05:36:27.446Z,3.57
2018-05-29T05:38:54.925Z,3.53
2018-05-29T05:41:22.385Z,3.50
2018-05-29T05:43:49.958Z,3.90
2018-05-29T05:46:17.535Z,3.83
2018-05-29T05:48:45.089Z,3.53
2018-05-29T05:51:12.610Z,3.87
2018-05-29T05:53:40.194Z,4.10
2018-05-29T05:56:07.753Z,4.20
2018-05-29T05:58:35.301Z,4.33
2018-05-29T06:01:02.783Z,4.83
2018-05-29T06:03:30.265Z,4.50
2018-05-29T06:05:57.722Z,4.47
2018-05-29T06:08:25.202Z,3.70
2018-05-29T06:10:52.685Z,3.83
2018-05-29T06:13:20.174Z,3.37
2018-05-29T06:15:47.702Z,3.60
2018-05-29T06:18:15.188Z,3.17
2018-05-29T06:20:42.674Z,3.43
2018-05-29T06:23:10.173Z,3.33
2018-05-29T06:25:37.630Z,3.13
2018-05-29T06:28:05.125Z,3.50
2018-05-29T06:30:32.586Z,3.53
2018-05-29T06:33:00.171Z,3.70
2018-05-29T06:35:27.640Z,4.77
2018-05-29T06:37:55.131Z,3.07
2018-05-29T06:40:22.595Z,3.00
2018-05-29T06:42:50.118Z,3.93
2018-05-29T06:45:17.599Z,3.53
2018-05-29T06:47:45.112Z,3.30
2018-05-29T06:50:12.586Z,3.40
2018-05-29T06:52:40.052Z,4.33
2018-05-29T06:55:07.577Z,3.70
2018-05-29T06:57:35.072Z,3.50
2018-05-29T07:00:02.587Z,3.33
2018-05-29T07:02:30.068Z,2.93
2018-05-29T07:04:57.699Z,3.23
2018-05-29T07:07:25.255Z,3.20
2018-05-29T07:09:52.748Z,2.50
2018-05-29T07:12:20.213Z,2.77
2018-05-29T07:14:47.734Z,2.87
2018-05-29T07:17:15.329Z,2.87
2018-05-29T07:19:42.831Z,2.50
2018-05-29T07:22:10.300Z,2.80
2018-05-29T07:24:37.823Z,2.37
2018-05-29T07:27:05.278Z,2.60
2018-05-29T07:29:32.779Z,3.03
2018-05-29T07:32:00.258Z,3.03
2018-05-29T07:34:27.759Z,2.57
2018-05-29T07:36:55.239Z,3.03
2018-05-29T07:39:22.814Z,3.27
2018-05-29T07:41:50.314Z,2.53
2018-05-29T07:44:17.808Z,2.43
2018-05-29T07:46:45.271Z,3.27
2018-05-29T07:49:12.855Z,2.70
2018-05-29T07:51:40.314Z,2.50
2018-05-29T07:54:08.078Z,2.70
2018-05-29T07:56:35.603Z,2.77
2018-05-29T07:59:04.030Z,3.03
2018-05-29T08:01:31.519Z,2.60
2018-05-29T08:03:59.083Z,2.53
2018-05-29T08:06:26.606Z,2.50
2018-05-29T08:08:54.095Z,2.10
2018-05-29T08:11:21.573Z,2.47
2018-05-29T08:13:49.266Z,1.97
2018-05-29T08:16:16.730Z,1.93
2018-05-29T08:18:44.291Z,2.10
2018-05-29T08:21:11.795Z,2.37
2018-05-29T08:23:39.287Z,2.43
2018-05-29T08:26:06.776Z,2.23
2018-05-29T08:28:34.276Z,2.53
2018-05-29T08:31:01.812Z,2.40
2018-05-29T08:33:29.339Z,2.17
2018-05-29T08:35:56.822Z,2.60
2018-05-29T08:38:24.293Z,2.17
2018-05-29T08:40:51.787Z,2.97
2018-05-29T08:43:19.249Z,2.03
2018-05-29T08:45:46.742Z,2.10
2018-05-29T08:48:14.231Z,2.20
2018-05-29T08:50:41.793Z,2.90
2018-05-29T08:53:09.592Z,2.23
2018-05-29T08:55:37.088Z,2.67
2018-05-29T08:58:04.565Z,2.83
2018-05-29T09:00:32.095Z,2.77
2018-05-29T09:02:59.690Z,2.80
2018-05-29T09:05:27.193Z,2.73
2018-05-29T09:07:54.663Z,2.03
2018-05-29T09:10:22.165Z,2.50
2018-05-29T09:12:49.636Z,1.87
2018-05-29T09:15:17.139Z,2.03
2018-05-29T09:17:44.615Z,2.35
2018-05-29T09:20:12.127Z,2.08
2018-05-29T09:22:39.662Z,1.90
2018-05-29T09:25:07.171Z,1.95
2018-05-29T09:27:34.660Z,2.30
2018-05-29T09:30:02.308Z,1.80
2018-05-29T09:32:29.839Z,1.80
2018-05-29T09:34:57.332Z,2.17
2018-05-29T09:37:24.924Z,2.20
2018-05-29T09:39:52.387Z,2.87
2018-05-29T09:42:19.891Z,1.92
2018-05-29T09:44:47.421Z,2.40
2018-05-29T09:47:15.847Z,1.95
2018-05-29T09:49:43.391Z,2.00
2018-05-29T09:52:10.882Z,1.80
2018-05-29T09:54:38.411Z,1.80
2018-05-29T09:57:05.891Z,2.00
2018-05-29T09:59:33.484Z,2.08
2018-05-29T10:02:01.138Z,2.03
2018-05-29T10:04:28.653Z,2.05
2018-05-29T10:06:56.297Z,2.05
2018-05-29T10:09:23.876Z,1.90
2018-05-29T10:11:51.441Z,2.25
2018-05-29T10:14:19.408Z,1.75
2018-05-29T10:16:46.943Z,1.87
2018-05-29T10:19:14.432Z,1.87
2018-05-29T10:21:41.999Z,1.80
2018-05-29T10:24:09.564Z,1.37
2018-05-29T10:26:37.059Z,1.77
2018-05-29T10:29:04.540Z,1.98
2018-05-29T10:31:32.326Z,2.05
2018-05-29T10:33:59.820Z,1.52
2018-05-29T10:36:27.347Z,1.75
2018-05-29T10:38:54.811Z,1.80
2018-05-29T10:41:22.475Z,1.95
2018-05-29T10:43:49.955Z,2.03
2018-05-29T10:46:17.497Z,2.20
2018-05-29T10:48:45.034Z,2.97
2018-05-29T10:51:12.530Z,1.83
2018-05-29T10:53:39.998Z,2.42
2018-05-29T10:56:07.523Z,2.00
2018-05-29T10:58:35.105Z,2.03
2018-05-29T11:01:02.662Z,2.08
2018-05-29T11:03:30.152Z,2.03
2018-05-29T11:05:57.671Z,2.25
2018-05-29T11:08:25.152Z,2.12
2018-05-29T11:10:52.651Z,2.40
2018-05-29T11:13:20.149Z,1.80
2018-05-29T11:15:47.635Z,1.95
2018-05-29T11:18:15.118Z,1.87
2018-05-29T11:20:42.643Z,2.50
2018-05-29T11:23:10.171Z,2.42
2018-05-29T11:25:37.655Z,2.10
2018-05-29T11:28:05.272Z,2.35
2018-05-29T11:30:32.827Z,1.75
2018-05-29T11:33:00.357Z,2.40
2018-05-29T11:35:27.825Z,2.58
2018-05-29T11:37:55.325Z,2.87
2018-05-29T11:40:22.800Z,1.95
2018-05-29T11:42:50.332Z,2.25
2018-05-29T11:45:17.806Z,2.33
2018-05-29T11:47:45.360Z,2.12
2018-05-29T11:50:12.854Z,2.30
2018-05-29T11:52:40.352Z,2.12
2018-05-29T11:55:07.821Z,2.22
2018-05-29T11:57:35.313Z,2.40
2018-05-29T12:00:02.835Z,2.15
2018-05-29T12:02:30.396Z,1.77
2018-05-29T12:04:57.956Z,2.33
2018-05-29T12:07:25.514Z,2.05
2018-05-29T12:09:53.071Z,1.70
2018-05-29T12:12:27.190Z,1.77
2018-05-29T12:14:54.756Z,2.33
2018-05-29T12:17:22.282Z,2.03
2018-05-29T12:19:49.757Z,2.58
2018-05-29T12:22:17.276Z,2.25
2018-05-29T12:24:44.750Z,1.65
2018-05-29T12:27:12.239Z,2.08
2018-05-29T12:29:39.702Z,1.67
2018-05-29T12:32:07.204Z,1.75
2018-05-29T12:34:34.679Z,1.83
2018-05-29T12:37:02.178Z,2.12
2018-05-29T12:39:29.664Z,1.83
2018-05-29T12:41:57.196Z,1.60
2018-05-29T12:44:24.679Z,2.53
2018-05-29T12:46:52.209Z,2.20
2018-05-29T12:49:19.767Z,2.10
2018-05-29T12:51:47.255Z,2.05
2018-05-29T12:54:14.723Z,2.10
2018-05-29T12:56:42.211Z,2.17
2018-05-29T12:59:09.699Z,2.17
2018-05-29T13:01:37.263Z,2.03
2018-05-29T13:04:04.827Z,2.28
2018-05-29T13:06:32.340Z,1.45
2018-05-29T13:08:59.831Z,2.10
2018-05-29T13:11:27.335Z,2.00
2018-05-29T13:13:54.821Z,1.48
2018-05-29T13:16:22.286Z,1.60
2018-05-29T13:18:49.855Z,1.37
2018-05-29T13:21:17.315Z,1.50
2018-05-29T13:23:44.803Z,1.48
2018-05-29T13:26:12.261Z,1.70
2018-05-29T13:28:39.789Z,1.60
2018-05-29T13:31:07.366Z,1.15
2018-05-29T13:33:34.859Z,1.62
2018-05-29T13:36:02.388Z,1.83
2018-05-29T13:38:29.877Z,1.90
2018-05-29T13:40:57.342Z,1.50
2018-05-29T13:43:24.868Z,1.35
2018-05-29T13:45:52.427Z,1.77
2018-05-29T13:48:19.918Z,1.70
2018-05-29T13:50:47.403Z,1.73
2018-05-29T13:53:15.000Z,1.50
2018-05-29T13:55:42.556Z,1.65
2018-05-29T13:58:10.115Z,1.87
2018-05-29T14:00:37.587Z,1.70
2018-05-29T14:03:05.083Z,1.60
2018-05-29T14:05:32.566Z,1.50
2018-05-29T14:08:00.186Z,1.70
2018-05-29T14:10:27.674Z,1.90
2018-05-29T14:12:55.267Z,1.92
2018-05-29T14:15:22.800Z,1.15
2018-05-29T14:17:50.304Z,1.50
2018-05-29T14:20:17.771Z,1.62
2018-05-29T14:22:45.312Z,1.52
2018-05-29T14:25:12.865Z,1.62
2018-05-29T14:27:40.347Z,1.60
2018-05-29T14:30:07.879Z,1.62
2018-05-29T14:32:35.442Z,1.87
2018-05-29T14:35:02.918Z,1.67
2018-05-29T14:37:30.410Z,2.10
2018-05-29T14:39:57.884Z,1.48
2018-05-29T14:42:25.393Z,1.37
2018-05-29T14:44:52.944Z,1.80
2018-05-29T14:47:20.425Z,2.78
2018-05-29T14:49:47.941Z,1.77
2018-05-29T14:52:15.430Z,1.62
2018-05-29T14:54:42.926Z,1.98
2018-05-29T14:57:10.412Z,1.90
2018-05-29T14:59:38.023Z,1.80
2018-05-29T15:02:05.635Z,1.55
2018-05-29T15:04:33.157Z,1.70
2018-05-29T15:07:00.655Z,1.77
2018-05-29T15:09:28.155Z,1.62
2018-05-29T15:11:55.649Z,1.48
2018-05-29T15:14:23.157Z,1.17
2018-05-29T15:16:50.634Z,1.40
2018-05-29T15:19:18.164Z,1.33
2018-05-29T15:21:45.635Z,4.37
2018-05-29T15:24:13.129Z,1.37
2018-05-29T15:26:40.627Z,2.03
2018-05-29T15:29:08.125Z,1.83
2018-05-29T15:31:35.668Z,1.55
2018-05-29T15:34:03.219Z,1.30
2018-05-29T15:36:30.682Z,1.50
2018-05-29T15:38:58.170Z,1.40
2018-05-29T15:41:25.666Z,1.85
2018-05-29T15:43:53.159Z,2.08
2018-05-29T15:46:20.671Z,1.67
2018-05-29T15:48:48.158Z,1.45
2018-05-29T15:51:15.742Z,1.37
2018-05-29T15:53:46.608Z,1.85
2018-05-29T15:56:14.160Z,1.00
2018-05-29T15:58:41.662Z,1.62
2018-05-29T16:01:09.311Z,1.30
2018-05-29T16:03:36.935Z,1.52
2018-05-29T16:06:04.407Z,1.60
2018-05-29T16:08:31.964Z,1.50
2018-05-29T16:10:59.443Z,1.35
2018-05-29T16:13:26.947Z,1.45
2018-05-29T16:15:54.496Z,1.20
2018-05-29T16:18:22.003Z,1.25
2018-05-29T16:20:50.343Z,1.70
2018-05-29T16:23:17.810Z,1.40
2018-05-29T16:25:49.755Z,1.30
2018-05-29T16:28:21.527Z,1.08
2018-05-29T16:30:50.062Z,1.50
2018-05-29T16:33:17.577Z,1.80
2018-05-29T16:35:45.059Z,1.60
2018-05-29T16:38:18.202Z,1.58
2018-05-29T16:40:50.812Z,1.87
2018-05-29T16:43:19.589Z,1.10
2018-05-29T16:45:48.797Z,1.62
2018-05-29T16:48:18.090Z,1.23
2018-05-29T16:50:45.656Z,1.40
2018-05-29T16:53:13.126Z,1.05
2018-05-29T16:55:40.621Z,1.67
2018-05-29T16:58:08.164Z,1.20
2018-05-29T17:00:35.656Z,1.83
2018-05-29T17:03:09.788Z,1.35
2018-05-29T17:05:44.629Z,1.60
2018-05-29T17:08:12.264Z,1.25
2018-05-29T17:10:39.783Z,1.90
2018-05-29T17:13:07.347Z,1.23
2018-05-29T17:15:34.906Z,1.67
2018-05-29T17:18:02.416Z,1.75
2018-05-29T17:20:29.912Z,1.40
2018-05-29T17:22:57.502Z,1.30
2018-05-29T17:25:30.790Z,1.48
2018-05-29T17:28:06.778Z,1.30
2018-05-29T17:30:34.332Z,1.70
2018-05-29T17:33:01.819Z,1.60
2018-05-29T17:35:29.484Z,1.70
2018-05-29T17:37:56.973Z,1.05
2018-05-29T17:40:24.482Z,1.23
2018-05-29T17:42:51.983Z,1.67
2018-05-29T17:45:19.489Z,2.25
2018-05-29T17:47:47.153Z,1.83
2018-05-29T17:50:14.643Z,1.48
2018-05-29T17:52:42.145Z,2.55
2018-05-29T17:55:09.677Z,1.85
2018-05-29T17:57:37.167Z,2.17
2018-05-29T18:00:04.663Z,1.20
2018-05-29T18:02:32.158Z,1.98
2018-05-29T18:04:59.651Z,2.03
2018-05-29T18:07:27.148Z,1.30
2018-05-29T18:09:54.639Z,1.52
2018-05-29T18:12:22.105Z,2.00
2018-05-29T18:14:49.649Z,1.17
2018-05-29T18:17:17.210Z,1.65
2018-05-29T18:19:44.725Z,1.75
2018-05-29T18:22:12.241Z,1.30
2018-05-29T18:24:39.711Z,1.40
2018-05-29T18:27:07.208Z,1.35
2018-05-29T18:29:34.682Z,2.50
2018-05-29T18:32:02.173Z,1.50
2018-05-29T18:34:29.649Z,1.40
2018-05-29T18:36:57.133Z,1.35
2018-05-29T18:39:24.617Z,1.58
2018-05-29T18:41:52.174Z,1.45
2018-05-29T18:44:19.650Z,1.65
2018-05-29T18:46:47.230Z,1.73
2018-05-29T18:49:14.789Z,1.42
2018-05-29T18:51:42.331Z,1.87
2018-05-29T18:54:09.819Z,1.62
2018-05-29T18:56:37.317Z,1.80
2018-05-29T18:59:04.802Z,1.80
2018-05-29T19:01:32.296Z,1.95
2018-05-29T19:03:59.767Z,2.00
2018-05-29T19:06:27.276Z,1.50
2018-05-29T19:08:54.772Z,1.48
2018-05-29T19:11:22.266Z,1.77
2018-05-29T19:13:49.750Z,1.48
2018-05-29T19:16:17.262Z,1.55
2018-05-29T19:18:44.763Z,1.15
2018-05-29T19:21:12.258Z,1.37
2018-05-29T19:23:39.722Z,1.50
2018-05-29T19:26:07.247Z,2.00
2018-05-29T19:28:34.718Z,2.72
2018-05-29T19:31:02.206Z,5.40
2018-05-29T19:33:29.674Z,3.28
2018-05-29T19:35:57.187Z,3.50
2018-05-29T19:38:24.706Z,2.20
2018-05-29T19:40:52.372Z,2.28
2018-05-29T19:43:19.838Z,4.03
2018-05-29T19:45:47.346Z,6.85
2018-05-29T19:48:14.809Z,1.87
2018-05-29T19:50:42.358Z,2.35
2018-05-29T19:53:09.892Z,1.48
2018-05-29T19:55:37.390Z,1.92
2018-05-29T19:58:04.871Z,1.58
2018-05-29T20:00:32.403Z,1.58
2018-05-29T20:02:59.898Z,2.03
2018-05-29T20:05:27.378Z,1.65
2018-05-29T20:07:54.861Z,1.48
2018-05-29T20:10:22.334Z,1.75
2018-05-29T20:12:49.890Z,1.52
2018-05-29T20:15:17.470Z,1.20
2018-05-29T20:17:45.051Z,1.50
2018-05-29T20:20:12.523Z,1.40
2018-05-29T20:22:40.014Z,2.15
2018-05-29T20:25:07.503Z,1.87
2018-05-29T20:27:35.055Z,2.33
2018-05-29T20:30:02.542Z,2.40
2018-05-29T20:32:30.101Z,1.67
2018-05-29T20:34:57.642Z,1.40
2018-05-29T20:37:25.141Z,1.40
2018-05-29T20:39:52.622Z,1.85
2018-05-29T20:42:20.127Z,1.92
2018-05-29T20:44:47.603Z,1.67
2018-05-29T20:47:15.131Z,1.42
2018-05-29T20:49:42.606Z,2.35
2018-05-29T20:52:10.119Z,1.75
2018-05-29T20:54:37.881Z,1.85
2018-05-29T20:57:05.467Z,1.80
2018-05-29T20:59:32.944Z,2.10
2018-05-29T21:02:00.435Z,1.83
2018-05-29T21:04:27.926Z,2.03
2018-05-29T21:06:55.435Z,1.80
2018-05-29T21:09:22.920Z,1.50
2018-05-29T21:11:50.410Z,2.28
2018-05-29T21:14:17.872Z,1.58
2018-05-29T21:16:45.366Z,2.25
2018-05-29T21:19:12.887Z,1.80
2018-05-29T21:21:40.442Z,2.23
2018-05-29T21:24:07.937Z,1.45
2018-05-29T21:26:35.408Z,1.70
2018-05-29T21:29:02.920Z,2.33
2018-05-29T21:31:30.385Z,2.25
2018-05-29T21:33:57.867Z,1.60
2018-05-29T21:36:25.374Z,1.42
2018-05-29T21:38:52.866Z,2.20
2018-05-29T21:41:20.454Z,2.25
2018-05-29T21:43:47.967Z,1.80
2018-05-29T21:46:15.461Z,1.70
2018-05-29T21:48:43.063Z,2.62
2018-05-29T21:51:10.590Z,2.10
2018-05-29T21:53:38.129Z,2.80
2018-05-29T21:56:05.609Z,2.20
2018-05-29T21:58:33.188Z,2.57
2018-05-29T22:01:00.754Z,2.20
2018-05-29T22:03:29.195Z,2.63
2018-05-29T22:05:57.169Z,2.07
2018-05-29T22:08:24.724Z,2.10
2018-05-29T22:10:52.282Z,2.00
2018-05-29T22:13:19.776Z,1.75
2018-05-29T22:15:47.958Z,2.00
2018-05-29T22:18:15.442Z,2.17
2018-05-29T22:20:42.907Z,3.80
2018-05-29T22:23:10.408Z,2.30
2018-05-29T22:25:37.891Z,2.83
2018-05-29T22:28:05.503Z,2.23
2018-05-29T22:30:33.054Z,1.97
2018-05-29T22:33:00.665Z,2.37
2018-05-29T22:35:28.143Z,3.07
2018-05-29T22:37:55.647Z,2.50
2018-05-29T22:40:23.217Z,2.17
2018-05-29T22:42:50.686Z,2.13
2018-05-29T22:45:18.218Z,2.07
2018-05-29T22:47:45.687Z,2.67
2018-05-29T22:50:13.172Z,2.40
2018-05-29T22:52:40.761Z,2.50
2018-05-29T22:55:08.251Z,2.40
2018-05-29T22:57:35.819Z,2.90
2018-05-29T23:00:03.377Z,2.30
2018-05-29T23:02:30.934Z,1.83
2018-05-29T23:04:58.490Z,2.00
2018-05-29T23:07:26.014Z,2.30
2018-05-29T23:09:53.508Z,2.10
2018-05-29T23:12:20.971Z,2.60
2018-05-29T23:14:48.530Z,2.80
2018-05-29T23:17:15.996Z,2.67
2018-05-29T23:19:43.531Z,2.57
2018-05-29T23:22:10.994Z,2.10
2018-05-29T23:24:38.521Z,2.50
2018-05-29T23:27:06.003Z,2.97
2018-05-29T23:29:33.521Z,2.97
2018-05-29T23:32:01.002Z,2.80
2018-05-29T23:34:28.487Z,2.20
2018-05-29T23:36:55.969Z,2.03
2018-05-29T23:39:23.534Z,2.40
2018-05-29T23:41:51.071Z,2.07
2018-05-29T23:44:18.630Z,2.57
2018-05-29T23:46:46.211Z,2.37
2018-05-29T23:49:13.753Z,1.80
2018-05-29T23:51:41.237Z,2.37
2018-05-29T23:54:08.815Z,1.93
2018-05-29T23:56:36.326Z,2.13
2018-05-29T23:59:03.794Z,2.50
